createdAt,value
2022-11-29T00:01:40.231Z,75.20
2022-11-29T00:04:08.662Z,75.46
2022-11-29T00:06:36.470Z,75.40
2022-11-29T00:09:07.847Z,75.38
2022-11-29T00:11:55.909Z,75.07
2022-11-29T00:14:25.356Z,75.51
2022-11-29T00:16:56.779Z,75.28
2022-11-29T00:19:25.084Z,75.34
2022-11-29T00:21:53.049Z,75.12
2022-11-29T00:24:21.245Z,75.43
2022-11-29T00:26:49.371Z,75.31
2022-11-29T00:29:17.218Z,75.16
2022-11-29T00:31:45.651Z,75.16
2022-11-29T00:34:13.428Z,75.13
2022-11-29T00:36:41.310Z,75.27
2022-11-29T00:39:11.889Z,75.16
2022-11-29T00:41:40.386Z,74.98
2022-11-29T00:44:09.210Z,75.17
2022-11-29T00:46:37.737Z,75.11
2022-11-29T00:49:05.501Z,75.09
2022-11-29T00:51:33.504Z,75.12
2022-11-29T00:54:01.388Z,75.28
2022-11-29T00:56:30.266Z,75.26
2022-11-29T00:58:58.348Z,75.10
2022-11-29T01:02:00.868Z,75.01
2022-11-29T01:04:29.518Z,75.16
2022-11-29T01:06:57.618Z,75.29
2022-11-29T01:09:27.545Z,75.10
2022-11-29T01:11:55.472Z,75.22
2022-11-29T01:14:23.360Z,75.32
2022-11-29T01:16:51.465Z,75.12
2022-11-29T01:19:20.633Z,75.16
2022-11-29T01:21:48.387Z,75.41
2022-11-29T01:24:16.311Z,75.15
2022-11-29T01:26:44.251Z,75.31
2022-11-29T01:29:13.440Z,75.13
2022-11-29T01:31:41.237Z,74.98
2022-11-29T01:34:10.586Z,75.19
2022-11-29T01:36:38.543Z,74.89
2022-11-29T01:39:06.894Z,74.93
2022-11-29T01:41:36.747Z,75.03
2022-11-29T01:44:04.523Z,75.04
2022-11-29T01:46:38.053Z,74.91
2022-11-29T01:49:13.218Z,75.34
2022-11-29T01:51:45.821Z,75.19
2022-11-29T01:54:14.927Z,75.24
2022-11-29T01:56:46.346Z,75.20
2022-11-29T01:59:19.234Z,75.32
2022-11-29T02:01:47.242Z,75.25
2022-11-29T02:04:17.103Z,75.26
2022-11-29T02:06:46.668Z,75.33
2022-11-29T02:09:23.290Z,75.29
2022-11-29T02:12:03.254Z,74.99
2022-11-29T02:14:53.367Z,75.28
2022-11-29T02:17:30.338Z,75.40
2022-11-29T02:20:35.833Z,75.46
2022-11-29T02:23:12.638Z,75.52
2022-11-29T02:26:06.687Z,75.40
2022-11-29T02:29:02.246Z,75.66
2022-11-29T02:31:48.956Z,75.53
2022-11-29T02:34:34.803Z,75.28
2022-11-29T02:37:27.136Z,75.21
2022-11-29T02:40:19.692Z,75.22
2022-11-29T02:43:03.351Z,74.99
2022-11-29T02:45:49.745Z,75.24
2022-11-29T02:48:17.528Z,75.30
2022-11-29T02:50:52.376Z,75.09
2022-11-29T02:53:33.060Z,75.29
2022-11-29T02:56:42.607Z,75.45
2022-11-29T02:59:42.905Z,75.47
2022-11-29T03:02:23.245Z,75.43
2022-11-29T03:05:17.400Z,75.38
2022-11-29T03:07:51.297Z,75.50
2022-11-29T03:10:37.999Z,75.41
2022-11-29T03:13:13.215Z,75.43
2022-11-29T03:16:03.311Z,75.44
2022-11-29T03:18:51.265Z,75.46
2022-11-29T03:21:36.510Z,75.42
2022-11-29T03:24:15.951Z,75.30
2022-11-29T03:26:51.894Z,75.60
2022-11-29T03:29:46.714Z,75.58
2022-11-29T03:32:35.432Z,75.62
2022-11-29T03:35:23.331Z,75.70
2022-11-29T03:38:16.289Z,75.96
2022-11-29T03:41:13.185Z,75.87
2022-11-29T03:43:55.069Z,75.83
2022-11-29T03:46:49.823Z,75.72
2022-11-29T03:49:32.629Z,75.67
2022-11-29T03:52:15.825Z,75.58
2022-11-29T03:55:19.321Z,75.68
2022-11-29T03:58:02.740Z,75.68
2022-11-29T04:00:52.362Z,75.76
2022-11-29T04:03:52.948Z,75.79
2022-11-29T04:06:29.542Z,75.99
2022-11-29T04:09:20.951Z,75.97
2022-11-29T04:12:25.693Z,75.77
2022-11-29T04:15:28.976Z,75.92
2022-11-29T04:18:24.787Z,75.92
2022-11-29T04:21:11.130Z,76.01
2022-11-29T04:24:30.529Z,75.87
2022-11-29T04:27:16.892Z,75.73
2022-11-29T04:29:50.689Z,75.71
2022-11-29T04:32:40.591Z,75.84
2022-11-29T04:35:35.482Z,75.82
2022-11-29T04:38:20.213Z,76.00
2022-11-29T04:40:57.354Z,76.00
2022-11-29T04:43:43.676Z,75.93
2022-11-29T04:46:14.718Z,75.94
2022-11-29T04:49:06.094Z,75.86
2022-11-29T04:52:02.722Z,76.01
2022-11-29T04:54:48.030Z,75.86
2022-11-29T04:57:35.396Z,75.82
2022-11-29T05:00:10.147Z,75.62
2022-11-29T05:02:40.988Z,75.70
2022-11-29T05:05:24.603Z,75.80
2022-11-29T05:08:26.582Z,75.86
2022-11-29T05:11:14.662Z,75.74
2022-11-29T05:14:01.392Z,75.87
2022-11-29T05:16:32.880Z,76.00
2022-11-29T05:19:34.740Z,75.69
2022-11-29T05:22:20.210Z,75.86
2022-11-29T05:25:21.289Z,75.64
2022-11-29T05:28:05.685Z,75.75
2022-11-29T05:31:15.016Z,75.69
2022-11-29T05:33:49.885Z,75.73
2022-11-29T05:36:40.070Z,75.84
2022-11-29T05:39:28.240Z,75.78
2022-11-29T05:42:13.310Z,75.92
2022-11-29T05:45:07.861Z,75.87
2022-11-29T05:47:46.776Z,76.02
2022-11-29T05:50:33.946Z,75.85
2022-11-29T05:53:21.792Z,75.90
2022-11-29T05:56:08.970Z,76.06
2022-11-29T05:58:40.019Z,75.78
2022-11-29T06:01:29.535Z,75.91
2022-11-29T06:04:22.918Z,75.81
2022-11-29T06:07:12.212Z,76.01
2022-11-29T06:10:01.450Z,75.90
2022-11-29T06:12:36.026Z,75.90
2022-11-29T06:15:47.440Z,75.88
2022-11-29T06:18:42.476Z,75.93
2022-11-29T06:21:39.749Z,75.73
2022-11-29T06:24:25.885Z,75.86
2022-11-29T06:27:00.599Z,75.65
2022-11-29T06:29:47.202Z,75.75
2022-11-29T06:32:42.009Z,76.03
2022-11-29T06:35:33.453Z,75.81
2022-11-29T06:38:20.895Z,75.91
2022-11-29T06:40:50.111Z,75.73
2022-11-29T06:43:18.744Z,75.88
2022-11-29T06:45:53.454Z,75.87
2022-11-29T06:48:27.299Z,75.96
2022-11-29T06:51:07.794Z,75.86
2022-11-29T06:53:41.716Z,75.91
2022-11-29T06:56:29.416Z,75.72
2022-11-29T06:59:23.525Z,75.78
2022-11-29T07:02:01.572Z,75.79
2022-11-29T07:05:01.690Z,75.76
2022-11-29T07:07:29.786Z,75.99
2022-11-29T07:10:01.030Z,76.12
2022-11-29T07:12:29.134Z,75.69
2022-11-29T07:14:57.216Z,75.94
2022-11-29T07:17:35.297Z,75.84
2022-11-29T07:20:34.753Z,75.83
2022-11-29T07:23:14.468Z,75.65
2022-11-29T07:26:04.259Z,75.68
2022-11-29T07:28:59.855Z,75.54
2022-11-29T07:32:05.786Z,75.45
2022-11-29T07:34:52.049Z,75.58
2022-11-29T07:37:41.010Z,75.63
2022-11-29T07:40:34.444Z,75.32
2022-11-29T07:43:33.006Z,75.36
2022-11-29T07:46:00.890Z,75.38
2022-11-29T07:48:28.681Z,75.28
2022-11-29T07:50:57.102Z,75.25
2022-11-29T07:53:25.169Z,75.18
2022-11-29T07:55:53.106Z,74.80
2022-11-29T07:58:21.096Z,74.63
2022-11-29T08:00:49.286Z,74.84
2022-11-29T08:03:17.079Z,74.63
2022-11-29T08:05:48.353Z,74.47
2022-11-29T08:08:16.415Z,74.49
2022-11-29T08:10:44.646Z,74.15
2022-11-29T08:13:12.548Z,74.37
2022-11-29T08:15:45.525Z,73.79
2022-11-29T08:18:16.457Z,73.75
2022-11-29T08:20:44.441Z,73.97
2022-11-29T08:23:13.853Z,73.51
2022-11-29T08:25:41.933Z,73.59
2022-11-29T08:28:12.852Z,73.64
2022-11-29T08:30:40.647Z,73.07
2022-11-29T08:33:08.590Z,73.44
2022-11-29T08:35:36.428Z,73.43
2022-11-29T08:38:05.025Z,73.38
2022-11-29T08:40:32.999Z,73.26
2022-11-29T08:43:01.351Z,72.90
2022-11-29T08:45:29.270Z,72.69
2022-11-29T08:47:57.104Z,72.98
2022-11-29T08:50:25.678Z,72.85
2022-11-29T08:53:11.888Z,72.61
2022-11-29T08:55:42.966Z,72.74
2022-11-29T08:58:15.829Z,72.59
2022-11-29T09:00:46.898Z,72.27
2022-11-29T09:03:34.888Z,72.65
2022-11-29T09:06:12.484Z,72.23
2022-11-29T09:08:45.716Z,72.26
2022-11-29T09:11:16.980Z,72.64
2022-11-29T09:13:47.033Z,72.24
2022-11-29T09:16:20.597Z,72.21
2022-11-29T09:18:53.009Z,71.76
2022-11-29T09:21:20.964Z,71.70
2022-11-29T09:23:48.793Z,71.69
2022-11-29T09:26:19.940Z,71.51
2022-11-29T09:28:47.685Z,71.42
2022-11-29T09:31:17.160Z,71.44
2022-11-29T09:33:45.675Z,71.57
2022-11-29T09:36:13.922Z,71.22
2022-11-29T09:38:41.905Z,71.42
2022-11-29T09:41:44.280Z,71.34
2022-11-29T09:44:40.321Z,71.51
2022-11-29T09:47:37.762Z,71.28
2022-11-29T09:50:19.676Z,71.21
2022-11-29T09:53:00.024Z,71.19
2022-11-29T09:55:43.134Z,71.08
2022-11-29T09:58:18.304Z,71.05
2022-11-29T10:00:50.644Z,71.09
2022-11-29T10:03:33.831Z,71.05
2022-11-29T10:06:26.900Z,70.69
2022-11-29T10:09:08.420Z,70.67
2022-11-29T10:11:42.606Z,70.56
2022-11-29T10:14:20.389Z,70.45
2022-11-29T10:16:56.313Z,70.36
2022-11-29T10:19:33.652Z,70.25
2022-11-29T10:22:07.690Z,69.59
2022-11-29T10:24:39.097Z,69.81
2022-11-29T10:27:19.816Z,69.76
2022-11-29T10:29:51.129Z,69.59
2022-11-29T10:32:21.326Z,69.48
2022-11-29T10:34:49.758Z,69.28
2022-11-29T10:37:22.308Z,69.41
2022-11-29T10:40:00.370Z,69.56
2022-11-29T10:42:50.315Z,69.33
2022-11-29T10:45:31.357Z,69.28
2022-11-29T10:48:12.188Z,69.12
2022-11-29T10:50:44.945Z,68.97
2022-11-29T10:53:16.318Z,68.88
2022-11-29T10:55:50.738Z,68.75
2022-11-29T10:58:28.565Z,68.99
2022-11-29T11:01:06.749Z,68.87
2022-11-29T11:03:41.623Z,68.69
2022-11-29T11:06:16.391Z,68.81
2022-11-29T11:08:48.106Z,68.85
2022-11-29T11:11:25.560Z,68.71
2022-11-29T11:14:06.228Z,68.65
2022-11-29T11:16:37.405Z,68.37
2022-11-29T11:19:28.538Z,68.29
2022-11-29T11:21:59.399Z,68.10
2022-11-29T11:24:30.645Z,67.89
2022-11-29T11:27:01.270Z,67.93
2022-11-29T11:29:37.872Z,67.70
2022-11-29T11:32:15.532Z,67.81
2022-11-29T11:35:20.976Z,67.53
2022-11-29T11:37:56.572Z,67.59
2022-11-29T11:40:30.625Z,67.39
2022-11-29T11:43:04.560Z,67.02
2022-11-29T11:45:35.481Z,67.29
2022-11-29T11:48:11.667Z,67.03
2022-11-29T11:50:52.112Z,67.23
2022-11-29T11:53:39.217Z,67.20
2022-11-29T11:56:11.277Z,67.27
2022-11-29T11:58:47.446Z,67.33
2022-11-29T12:01:35.629Z,67.14
2022-11-29T12:04:15.054Z,67.19
2022-11-29T12:06:58.081Z,67.20
2022-11-29T12:09:49.305Z,67.12
2022-11-29T12:12:30.715Z,67.02
2022-11-29T12:15:22.127Z,67.12
2022-11-29T12:17:56.414Z,67.06
2022-11-29T12:20:31.392Z,66.97
2022-11-29T12:23:16.532Z,66.97
2022-11-29T12:26:00.624Z,66.90
2022-11-29T12:28:33.138Z,66.87
2022-11-29T12:31:36.488Z,66.56
2022-11-29T12:34:07.198Z,66.40
2022-11-29T12:36:53.987Z,66.57
2022-11-29T12:39:53.730Z,66.24
2022-11-29T12:42:36.179Z,66.34
2022-11-29T12:45:24.058Z,66.16
2022-11-29T12:48:13.570Z,65.93
2022-11-29T12:50:50.717Z,66.01
2022-11-29T12:53:49.606Z,66.11
2022-11-29T12:56:48.132Z,66.07
2022-11-29T12:59:33.407Z,66.04
2022-11-29T13:02:23.735Z,66.17
2022-11-29T13:05:20.652Z,66.36
2022-11-29T13:08:29.929Z,66.40
2022-11-29T13:11:03.769Z,66.33
2022-11-29T13:13:44.661Z,66.15
2022-11-29T13:16:34.920Z,65.77
2022-11-29T13:19:14.910Z,65.43
2022-11-29T13:22:20.271Z,65.27
2022-11-29T13:24:57.082Z,65.05
2022-11-29T13:27:30.074Z,65.04
2022-11-29T13:30:00.586Z,64.96
2022-11-29T13:32:33.394Z,64.71
2022-11-29T13:35:17.878Z,64.63
2022-11-29T13:37:55.340Z,64.43
2022-11-29T13:40:56.869Z,64.58
2022-11-29T13:43:45.662Z,64.48
2022-11-29T13:46:37.198Z,64.51
2022-11-29T13:49:05.158Z,64.57
2022-11-29T13:51:37.627Z,64.57
2022-11-29T13:54:24.936Z,64.47
2022-11-29T13:57:05.159Z,64.42
2022-11-29T13:59:35.968Z,64.20
2022-11-29T14:02:24.498Z,64.28
2022-11-29T14:04:52.731Z,64.05
2022-11-29T14:07:20.774Z,64.18
2022-11-29T14:09:50.484Z,64.37
2022-11-29T14:12:26.329Z,64.33
2022-11-29T14:15:01.713Z,64.44
2022-11-29T14:17:46.717Z,64.72
2022-11-29T14:20:23.358Z,64.74
2022-11-29T14:23:06.532Z,64.73
2022-11-29T14:26:00.869Z,64.96
2022-11-29T14:28:31.643Z,64.75
2022-11-29T14:31:04.627Z,64.89
2022-11-29T14:33:50.866Z,64.81
2022-11-29T14:36:45.709Z,65.04
2022-11-29T14:39:32.390Z,65.17
2022-11-29T14:42:21.564Z,65.13
2022-11-29T14:45:01.545Z,65.00
2022-11-29T14:47:39.085Z,65.03
2022-11-29T14:50:10.535Z,65.05
2022-11-29T14:52:51.400Z,65.32
2022-11-29T14:55:22.659Z,65.31
2022-11-29T14:57:54.923Z,65.21
2022-11-29T15:00:33.572Z,65.35
2022-11-29T15:03:10.406Z,65.61
2022-11-29T15:05:38.451Z,65.79
2022-11-29T15:08:17.120Z,65.88
2022-11-29T15:10:51.733Z,65.78
2022-11-29T15:13:27.788Z,65.89
2022-11-29T15:16:20.360Z,65.82
2022-11-29T15:19:04.892Z,65.92
2022-11-29T15:21:50.933Z,65.86
2022-11-29T15:24:19.830Z,66.20
2022-11-29T15:27:00.660Z,66.18
2022-11-29T15:29:30.813Z,66.48
2022-11-29T15:32:01.158Z,66.45
2022-11-29T15:34:40.217Z,66.13
2022-11-29T15:37:22.179Z,66.27
2022-11-29T15:40:20.677Z,66.41
2022-11-29T15:43:00.095Z,66.35
2022-11-29T15:45:34.758Z,66.27
2022-11-29T15:48:35.421Z,66.15
2022-11-29T15:51:21.519Z,66.22
2022-11-29T15:54:11.302Z,66.16
2022-11-29T15:56:47.490Z,66.17
2022-11-29T16:00:02.069Z,66.26
2022-11-29T16:03:26.252Z,66.39
2022-11-29T16:07:19.475Z,66.15
2022-11-29T16:10:04.017Z,66.35
2022-11-29T16:12:32.180Z,66.41
2022-11-29T16:15:01.457Z,66.33
2022-11-29T16:17:34.420Z,66.61
2022-11-29T16:20:14.468Z,66.44
2022-11-29T16:22:42.595Z,66.32
2022-11-29T16:25:20.737Z,66.28
2022-11-29T16:27:53.739Z,66.43
2022-11-29T16:30:24.679Z,66.43
2022-11-29T16:32:55.534Z,66.50
2022-11-29T16:35:27.647Z,66.72
2022-11-29T16:37:56.004Z,66.54
2022-11-29T16:40:29.865Z,66.46
2022-11-29T16:43:03.907Z,66.77
2022-11-29T16:45:38.024Z,66.81
2022-11-29T16:48:25.540Z,66.97
2022-11-29T16:51:23.617Z,66.93
2022-11-29T16:53:52.877Z,66.88
2022-11-29T16:56:22.946Z,66.74
2022-11-29T16:59:24.914Z,66.89
2022-11-29T17:01:49.503Z,66.90
2022-11-29T17:04:24.362Z,66.92
2022-11-29T17:06:56.436Z,66.46
2022-11-29T17:09:30.027Z,66.62
2022-11-29T17:11:59.947Z,66.90
2022-11-29T17:14:29.057Z,66.77
2022-11-29T17:16:57.236Z,66.72
2022-11-29T17:19:25.205Z,66.71
2022-11-29T17:21:53.084Z,67.03
2022-11-29T17:24:22.715Z,67.01
2022-11-29T17:26:51.394Z,66.94
2022-11-29T17:29:19.157Z,67.11
2022-11-29T17:31:47.729Z,67.05
2022-11-29T17:34:16.589Z,67.02
2022-11-29T17:36:45.199Z,67.25
2022-11-29T17:39:15.756Z,67.49
2022-11-29T17:41:43.656Z,67.41
2022-11-29T17:44:11.714Z,67.62
2022-11-29T17:46:39.666Z,67.69
2022-11-29T17:49:09.371Z,67.84
2022-11-29T17:51:54.307Z,67.53
2022-11-29T17:54:23.279Z,67.80
2022-11-29T17:56:51.349Z,67.77
2022-11-29T17:59:19.230Z,67.64
2022-11-29T18:01:47.664Z,67.94
2022-11-29T18:04:15.591Z,68.02
2022-11-29T18:06:43.726Z,67.86
2022-11-29T18:09:11.728Z,67.66
2022-11-29T18:11:48.667Z,68.09
2022-11-29T18:14:20.966Z,67.78
2022-11-29T18:16:48.945Z,67.94
2022-11-29T18:19:19.730Z,67.94
2022-11-29T18:21:48.159Z,68.16
2022-11-29T18:24:16.632Z,68.26
2022-11-29T18:26:45.394Z,68.17
2022-11-29T18:29:13.431Z,68.18
2022-11-29T18:31:44.082Z,68.30
2022-11-29T18:34:13.937Z,68.24
2022-11-29T18:36:44.295Z,68.26
2022-11-29T18:39:15.518Z,68.43
2022-11-29T18:41:46.060Z,68.43
2022-11-29T18:44:15.536Z,68.37
2022-11-29T18:46:44.195Z,68.33
2022-11-29T18:49:15.137Z,68.39
2022-11-29T18:51:44.738Z,68.44
2022-11-29T18:54:15.459Z,68.64
2022-11-29T18:56:44.688Z,68.75
2022-11-29T18:59:17.056Z,69.03
2022-11-29T19:01:48.280Z,69.18
2022-11-29T19:04:18.995Z,69.21
2022-11-29T19:06:47.312Z,69.29
2022-11-29T19:09:20.875Z,69.43
2022-11-29T19:11:49.845Z,69.50
2022-11-29T19:14:18.793Z,69.10
2022-11-29T19:16:49.381Z,69.35
2022-11-29T19:19:18.955Z,69.51
2022-11-29T19:21:46.971Z,69.43
2022-11-29T19:24:20.659Z,69.42
2022-11-29T19:26:49.658Z,69.61
2022-11-29T19:29:17.713Z,69.48
2022-11-29T19:31:45.839Z,69.71
2022-11-29T19:34:14.092Z,69.78
2022-11-29T19:36:43.721Z,69.85
2022-11-29T19:39:14.541Z,70.30
2022-11-29T19:41:45.153Z,70.22
2022-11-29T19:44:13.437Z,70.38
2022-11-29T19:46:48.793Z,70.32
2022-11-29T19:49:17.273Z,70.31
2022-11-29T19:51:45.123Z,70.94
2022-11-29T19:54:13.198Z,71.13
2022-11-29T19:56:41.256Z,71.49
2022-11-29T19:59:09.364Z,71.36
2022-11-29T20:01:42.640Z,71.18
2022-11-29T20:04:13.287Z,71.46
2022-11-29T20:06:41.762Z,71.33
2022-11-29T20:09:10.796Z,71.58
2022-11-29T20:11:40.382Z,71.57
2022-11-29T20:14:10.766Z,71.58
2022-11-29T20:16:39.111Z,71.75
2022-11-29T20:19:16.968Z,71.72
2022-11-29T20:21:49.147Z,71.77
2022-11-29T20:24:17.887Z,71.82
2022-11-29T20:26:47.387Z,71.98
2022-11-29T20:29:15.987Z,72.19
2022-11-29T20:31:50.251Z,72.29
2022-11-29T20:34:20.054Z,72.30
2022-11-29T20:36:48.554Z,72.24
2022-11-29T20:39:39.041Z,72.51
2022-11-29T20:42:12.991Z,72.54
2022-11-29T20:44:51.950Z,72.71
2022-11-29T20:47:22.532Z,72.75
2022-11-29T20:49:50.648Z,72.78
2022-11-29T20:52:36.515Z,72.85
2022-11-29T20:55:05.515Z,72.98
2022-11-29T20:57:33.432Z,73.00
2022-11-29T21:00:01.335Z,72.93
2022-11-29T21:02:29.211Z,73.27
2022-11-29T21:04:57.103Z,73.38
2022-11-29T21:07:25.099Z,73.54
2022-11-29T21:09:57.988Z,73.41
2022-11-29T21:12:29.812Z,73.53
2022-11-29T21:14:58.297Z,73.51
2022-11-29T21:17:31.857Z,73.68
2022-11-29T21:20:02.083Z,73.63
2022-11-29T21:22:49.243Z,73.75
2022-11-29T21:25:31.591Z,74.04
2022-11-29T21:28:00.521Z,74.05
2022-11-29T21:30:28.612Z,74.02
2022-11-29T21:32:56.586Z,74.30
2022-11-29T21:35:24.605Z,74.47
2022-11-29T21:37:56.796Z,74.29
2022-11-29T21:40:24.563Z,74.41
2022-11-29T21:42:52.320Z,74.40
2022-11-29T21:45:20.204Z,74.45
2022-11-29T21:47:48.120Z,74.49
2022-11-29T21:50:15.912Z,74.55
2022-11-29T21:52:44.492Z,74.58
2022-11-29T21:55:14.151Z,74.64
2022-11-29T21:57:41.911Z,74.73
2022-11-29T22:00:10.705Z,74.64
2022-11-29T22:02:38.561Z,74.73
2022-11-29T22:05:07.961Z,75.04
2022-11-29T22:07:35.778Z,75.08
2022-11-29T22:10:11.709Z,75.25
2022-11-29T22:12:51.273Z,75.29
2022-11-29T22:15:24.627Z,75.76
2022-11-29T22:17:53.598Z,75.62
2022-11-29T22:20:21.455Z,75.83
2022-11-29T22:22:49.351Z,75.81
2022-11-29T22:25:17.537Z,76.07
2022-11-29T22:27:45.207Z,76.17
2022-11-29T22:30:13.047Z,76.14
2022-11-29T22:32:41.953Z,76.35
2022-11-29T22:35:11.456Z,76.35
2022-11-29T22:37:39.173Z,76.42
2022-11-29T22:40:07.582Z,76.70
2022-11-29T22:42:35.254Z,76.69
2022-11-29T22:45:04.336Z,76.79
2022-11-29T22:47:32.358Z,76.60
2022-11-29T22:50:00.089Z,76.91
2022-11-29T22:52:29.701Z,76.84
2022-11-29T22:55:04.311Z,76.96
2022-11-29T22:57:33.111Z,76.87
2022-11-29T23:00:01.056Z,77.14
2022-11-29T23:02:29.245Z,77.29
2022-11-29T23:04:57.213Z,77.20
2022-11-29T23:07:25.337Z,77.07
2022-11-29T23:09:55.102Z,77.14
2022-11-29T23:12:23.121Z,77.20
2022-11-29T23:14:56.067Z,77.33
2022-11-29T23:17:24.647Z,77.56
2022-11-29T23:19:52.733Z,77.56
2022-11-29T23:22:20.401Z,77.53
2022-11-29T23:24:48.321Z,77.48
2022-11-29T23:27:16.385Z,77.76
2022-11-29T23:29:51.909Z,77.42
2022-11-29T23:32:19.863Z,77.79
2022-11-29T23:34:47.804Z,77.65
2022-11-29T23:37:15.817Z,77.95
2022-11-29T23:39:43.698Z,77.82
2022-11-29T23:42:11.365Z,77.83
2022-11-29T23:44:39.504Z,77.73
2022-11-29T23:47:07.281Z,77.71
2022-11-29T23:49:35.746Z,78.03
2022-11-29T23:52:03.625Z,77.95
2022-11-29T23:54:31.635Z,77.78
2022-11-29T23:56:59.314Z,78.07
2022-11-29T23:59:27.105Z,78.21
